Gilead, Illinois
Current Conditions -  °F | °C
As of 4:54 PM on Thursday 23 Oct 2014 (Local Time) from KSET Reporting Station
Overcast Overcast  
Wind Chill: 63°   Ceiling: 11000
Heat Index: 63°   Visibility: 10mi
Dew Point: 47°   Wind: 8mph
Humidity: 56%   Direction: 180°S
Pressure: 30.08"   Gusts: NA
Location:  39.0922°N, 90.6653°W
Report Text: KSET 232154Z AUTO 18007KT 10SM OVC110 17/08 A3008 RMK AO2 SLP186 T01720083 $
Loading
Personal Weather Stations






























Interactive Weather Map
Tropical Storm Tracking
New forecast layout! Learn more

10-Day Weather Forecast

Advertisements
Track Severe Weather on mobile